Time;durP1;ratioP1;P1;durP2;ratioP2;P2;SDS_P1;SDS_P2;PMS_P1;PMS_P2;Temp;Humidity;BMP_temperature;BMP_pressure;BME280_temperature;BME280_humidity;BME280_pressure;Samples;Min_cycle;Max_cycle;Signal;HPM_P1;HPM_P2
2022/05/04 00:01:08;;;;;;;7.97;5.38;;;10.80;99.90;;;;;;5030561;28;20511;-57
2022/05/04 00:03:39;;;;;;;5.85;5.28;;;10.80;99.90;;;;;;5030512;28;20489;-55
2022/05/04 00:06:05;;;;;;;5.65;5.15;;;10.70;99.90;;;;;;5030479;28;20500;-54
2022/05/04 00:08:31;;;;;;;6.70;6.07;;;10.70;99.90;;;;;;5030571;28;20036;-55
2022/05/04 00:10:57;;;;;;;9.85;5.22;;;10.70;99.90;;;;;;5030489;28;20545;-55
2022/05/04 00:13:23;;;;;;;7.80;6.20;;;10.60;99.90;;;;;;5028956;28;20033;-57
2022/05/04 00:15:48;;;;;;;8.15;5.88;;;10.50;99.90;;;;;;5030386;28;20128;-52
2022/05/04 00:18:14;;;;;;;6.63;5.93;;;10.40;99.90;;;;;;5030184;28;20025;-53
2022/05/04 00:20:40;;;;;;;11.95;5.93;;;10.30;99.90;;;;;;5030207;28;20030;-53
2022/05/04 00:23:05;;;;;;;5.90;5.40;;;10.30;99.90;;;;;;5030597;28;20025;-56
2022/05/04 00:25:31;;;;;;;7.88;5.75;;;10.20;99.90;;;;;;5030135;28;20018;-54
2022/05/04 00:27:58;;;;;;;6.55;5.90;;;10.20;99.90;;;;;;5030255;28;20526;-54
2022/05/04 00:30:24;;;;;;;5.63;5.13;;;10.20;99.90;;;;;;5030199;28;20021;-54
2022/05/04 00:32:50;;;;;;;7.78;5.65;;;10.10;99.90;;;;;;5030109;28;20029;-55
2022/05/04 00:35:15;;;;;;;9.55;5.65;;;10.10;99.90;;;;;;5030159;28;20021;-53
2022/05/04 00:37:41;;;;;;;10.68;6.45;;;10.20;99.90;;;;;;5030207;28;20032;-56
2022/05/04 00:40:07;;;;;;;11.23;6.40;;;10.10;99.90;;;;;;5030252;28;20028;-58
2022/05/04 00:42:33;;;;;;;7.43;6.15;;;10.00;99.90;;;;;;5029899;28;20021;-59
2022/05/04 00:44:58;;;;;;;10.00;6.43;;;9.90;99.90;;;;;;5030244;28;20257;-54
2022/05/04 00:47:24;;;;;;;8.23;6.15;;;9.80;99.90;;;;;;5029852;28;20018;-53
2022/05/04 00:49:50;;;;;;;9.70;6.35;;;9.90;99.90;;;;;;5028802;28;20116;-57
2022/05/04 00:52:16;;;;;;;6.88;6.20;;;9.90;99.90;;;;;;5031005;28;20026;-55
2022/05/04 00:54:44;;;;;;;6.78;5.75;;;10.00;99.90;;;;;;5034006;28;20029;-56
2022/05/04 00:57:11;;;;;;;6.40;5.80;;;10.00;99.90;;;;;;5034029;28;20018;-54
2022/05/04 00:59:38;;;;;;;10.32;5.93;;;10.00;99.90;;;;;;5032714;28;20075;-56
2022/05/04 01:02:04;;;;;;;10.07;6.57;;;10.00;99.90;;;;;;5033758;28;20113;-54
2022/05/04 01:04:30;;;;;;;7.95;6.40;;;9.90;99.90;;;;;;5033680;28;20113;-55
2022/05/04 01:06:56;;;;;;;10.60;6.25;;;10.00;99.90;;;;;;5033737;28;20033;-56
2022/05/04 01:09:22;;;;;;;6.78;6.03;;;9.90;99.90;;;;;;5033791;28;20022;-52
2022/05/04 01:11:48;;;;;;;7.63;6.85;;;10.00;99.90;;;;;;5034094;28;20112;-55
2022/05/04 01:14:15;;;;;;;9.35;6.28;;;10.00;99.90;;;;;;5033579;28;20497;-54
2022/05/04 01:16:43;;;;;;;8.80;6.32;;;10.10;99.90;;;;;;5033304;28;20025;-56
2022/05/04 01:19:10;;;;;;;8.80;5.63;;;10.20;99.90;;;;;;5033427;28;20033;-56
2022/05/04 01:21:36;;;;;;;7.63;6.80;;;10.20;99.90;;;;;;5033718;28;20397;-56
2022/05/04 01:24:02;;;;;;;9.88;5.63;;;10.30;99.90;;;;;;5033575;28;20041;-54
2022/05/04 01:26:28;;;;;;;11.00;6.80;;;10.20;99.90;;;;;;5033324;28;20080;-56
2022/05/04 01:28:54;;;;;;;7.35;6.63;;;10.20;99.90;;;;;;5033375;28;20021;-55
2022/05/04 01:31:20;;;;;;;9.38;5.97;;;10.20;99.90;;;;;;5033260;28;20036;-58
2022/05/04 01:33:45;;;;;;;9.35;6.85;;;10.30;99.90;;;;;;5033153;28;20211;-52
2022/05/04 01:36:11;;;;;;;7.22;5.97;;;10.30;99.90;;;;;;5033154;28;20465;-54
2022/05/04 01:38:37;;;;;;;8.63;6.05;;;10.40;99.90;;;;;;5033314;28;20028;-55
2022/05/04 01:41:03;;;;;;;6.88;6.28;;;10.30;99.90;;;;;;5033158;28;20014;-55
2022/05/04 01:43:29;;;;;;;6.45;5.80;;;10.40;99.90;;;;;;5033355;28;20018;-53
2022/05/04 01:45:55;;;;;;;7.80;6.38;;;10.30;99.90;;;;;;5032854;28;20052;-56
2022/05/04 01:48:21;;;;;;;8.38;6.18;;;10.40;99.90;;;;;;5032820;28;20414;-58
2022/05/04 01:50:47;;;;;;;6.90;6.18;;;10.40;99.90;;;;;;5032997;28;20040;-58
2022/05/04 01:53:13;;;;;;;8.00;6.10;;;10.40;99.90;;;;;;5033028;28;20063;-53
2022/05/04 01:55:40;;;;;;;8.05;6.03;;;10.40;99.90;;;;;;5032581;28;20384;-56
2022/05/04 01:58:07;;;;;;;6.00;5.00;;;10.40;99.90;;;;;;5032836;28;20377;-54
2022/05/04 02:00:34;;;;;;;7.30;6.60;;;10.40;99.90;;;;;;5032518;28;20022;-57
2022/05/04 02:03:00;;;;;;;10.68;5.82;;;10.40;99.90;;;;;;5032891;28;20029;-53
2022/05/04 02:05:27;;;;;;;6.65;6.00;;;10.40;99.90;;;;;;5031980;28;20452;-55
2022/05/04 02:07:53;;;;;;;8.80;5.70;;;10.40;99.90;;;;;;5032567;28;20034;-54
2022/05/04 02:10:19;;;;;;;12.85;5.88;;;10.40;99.90;;;;;;5032528;28;20041;-56
2022/05/04 02:12:45;;;;;;;7.68;6.57;;;10.30;99.90;;;;;;5032640;28;20034;-57
2022/05/04 02:15:11;;;;;;;6.78;6.07;;;10.30;99.90;;;;;;5032060;28;20106;-55
2022/05/04 02:17:38;;;;;;;7.25;6.55;;;10.30;99.90;;;;;;5032345;28;20029;-55
2022/05/04 02:20:04;;;;;;;10.50;6.38;;;10.40;99.90;;;;;;5032427;28;20048;-55
2022/05/04 02:22:30;;;;;;;7.63;6.28;;;10.30;99.90;;;;;;5032350;28;20025;-57
2022/05/04 02:24:56;;;;;;;7.00;6.13;;;10.30;99.90;;;;;;5032386;28;20380;-53
2022/05/04 02:27:22;;;;;;;6.70;5.25;;;10.30;99.90;;;;;;5032093;28;20025;-57
2022/05/04 02:29:48;;;;;;;8.63;6.13;;;10.20;99.90;;;;;;5032279;28;20040;-57
2022/05/04 02:32:14;;;;;;;8.60;6.20;;;10.20;99.90;;;;;;5032281;28;20025;-52
2022/05/04 02:40:09;;;;;;;6.90;6.20;;;10.20;99.90;;;;;;5032016;28;20484;-56
2022/05/04 02:42:36;;;;;;;17.42;7.80;;;10.20;99.90;;;;;;5031770;28;20025;-55
2022/05/04 02:45:02;;;;;;;7.35;6.65;;;10.30;99.90;;;;;;5032090;28;20461;-54
2022/05/04 02:47:28;;;;;;;8.75;6.90;;;10.30;99.90;;;;;;5031903;28;20389;-52
2022/05/04 02:49:53;;;;;;;8.10;7.30;;;10.30;99.90;;;;;;5031836;28;20018;-55
2022/05/04 02:52:19;;;;;;;8.77;7.75;;;10.30;99.90;;;;;;5031782;28;20719;-56
2022/05/04 02:54:45;;;;;;;9.00;7.63;;;10.30;99.90;;;;;;5032105;28;20025;-58
2022/05/04 02:57:10;;;;;;;10.25;6.70;;;10.40;99.90;;;;;;5031687;28;20044;-56
2022/05/04 02:59:36;;;;;;;9.27;7.20;;;10.40;99.90;;;;;;5031436;28;20064;-55
2022/05/04 03:04:45;;;;;;;7.10;6.35;;;10.60;99.90;;;;;;5031651;28;20082;-58
2022/05/04 03:07:11;;;;;;;10.88;7.10;;;10.60;99.90;;;;;;5031465;28;20022;-57
2022/05/04 03:09:37;;;;;;;9.10;6.85;;;10.60;99.90;;;;;;5031330;28;20095;-54
2022/05/04 03:12:02;;;;;;;11.15;7.47;;;10.60;99.90;;;;;;5031442;28;20028;-55
2022/05/04 03:14:28;;;;;;;7.93;7.13;;;10.60;99.90;;;;;;5031206;28;20056;-56
2022/05/04 03:16:55;;;;;;;15.00;7.47;;;10.60;99.90;;;;;;5030314;28;20029;-56
2022/05/04 03:19:22;;;;;;;8.27;7.07;;;10.60;99.90;;;;;;5031164;28;20388;-53
2022/05/04 03:21:48;;;;;;;11.90;7.25;;;10.70;99.90;;;;;;5031288;28;20057;-55
2022/05/04 03:24:14;;;;;;;8.80;7.45;;;10.70;99.90;;;;;;5031499;28;20686;-57
2022/05/04 03:26:40;;;;;;;9.93;8.02;;;10.70;99.90;;;;;;5030858;28;20023;-55
2022/05/04 03:29:06;;;;;;;8.93;8.00;;;10.70;99.90;;;;;;5031142;28;20388;-54
2022/05/04 03:31:32;;;;;;;10.90;9.70;;;10.80;99.90;;;;;;5030955;28;20021;-52
2022/05/04 03:33:58;;;;;;;14.48;9.00;;;10.80;99.90;;;;;;5029779;28;20029;-52
2022/05/04 03:36:23;;;;;;;11.63;9.80;;;10.80;99.90;;;;;;5030734;28;20080;-55
2022/05/04 03:38:49;;;;;;;14.73;9.38;;;10.70;99.90;;;;;;5030919;28;20025;-51
2022/05/04 03:41:15;;;;;;;11.75;9.68;;;10.70;99.90;;;;;;5031045;28;20025;-58
2022/05/04 03:43:41;;;;;;;12.23;9.45;;;10.70;99.90;;;;;;5030658;28;20033;-57
2022/05/04 03:46:15;;;;;;;11.95;9.60;;;10.80;99.90;;;;;;5030810;28;20345;-55
2022/05/04 03:48:42;;;;;;;10.98;9.23;;;10.80;99.90;;;;;;5031239;28;20025;-54
2022/05/04 03:51:09;;;;;;;10.15;8.95;;;10.90;99.90;;;;;;5030627;28;20366;-58
2022/05/04 03:53:35;;;;;;;16.20;9.52;;;10.90;99.90;;;;;;5030484;28;20032;-53
2022/05/04 03:56:01;;;;;;;10.95;9.25;;;10.90;99.90;;;;;;5030477;28;20072;-57
2022/05/04 03:58:26;;;;;;;12.98;9.85;;;11.00;99.90;;;;;;5030629;28;20025;-54
2022/05/04 04:00:52;;;;;;;10.88;9.77;;;11.00;99.90;;;;;;5030588;28;20028;-54
2022/05/04 04:03:18;;;;;;;11.00;8.32;;;11.10;99.90;;;;;;5030903;28;20125;-57
2022/05/04 04:05:44;;;;;;;10.95;8.80;;;11.20;99.90;;;;;;5030923;28;20029;-52
2022/05/04 04:08:09;;;;;;;13.23;9.48;;;11.20;99.90;;;;;;5030653;28;20023;-56
2022/05/04 04:10:35;;;;;;;11.30;8.43;;;11.30;99.90;;;;;;5030261;28;20029;-59
2022/05/04 04:13:02;;;;;;;9.02;8.02;;;11.30;99.90;;;;;;5029139;28;20065;-58
2022/05/04 04:15:27;;;;;;;10.48;8.93;;;11.40;99.90;;;;;;5028757;28;20100;-56
2022/05/04 04:17:54;;;;;;;12.52;9.43;;;11.40;99.90;;;;;;5030502;28;20025;-56
2022/05/04 04:23:03;;;;;;;10.63;8.65;;;11.50;99.90;;;;;;5030492;28;20071;-57
2022/05/04 04:25:29;;;;;;;13.73;8.57;;;11.50;99.90;;;;;;5030086;28;20033;-58
2022/05/04 04:27:55;;;;;;;10.15;8.82;;;11.60;99.90;;;;;;5030387;28;20017;-58
2022/05/04 04:30:20;;;;;;;11.93;8.27;;;11.60;99.90;;;;;;5030048;28;20036;-56
2022/05/04 04:32:46;;;;;;;9.35;8.40;;;11.70;99.90;;;;;;5030192;28;20022;-53
2022/05/04 04:35:11;;;;;;;10.73;7.82;;;11.70;99.90;;;;;;5030327;28;20026;-55
2022/05/04 04:37:37;;;;;;;10.70;8.13;;;11.80;99.90;;;;;;5030169;28;20026;-56
2022/05/04 04:40:03;;;;;;;9.95;8.25;;;11.90;99.90;;;;;;5030164;28;20024;-58
2022/05/04 04:42:29;;;;;;;13.43;7.40;;;12.10;99.90;;;;;;5030038;28;20032;-57
2022/05/04 04:44:54;;;;;;;14.45;9.40;;;12.10;99.90;;;;;;5030277;28;20376;-58
2022/05/04 04:47:20;;;;;;;8.57;7.78;;;12.10;99.90;;;;;;5029871;28;20032;-56
2022/05/04 04:49:46;;;;;;;9.10;8.20;;;12.20;99.90;;;;;;5030114;28;20025;-58
2022/05/04 04:52:11;;;;;;;8.57;7.75;;;12.20;99.90;;;;;;5030044;28;20028;-57
2022/05/04 04:54:37;;;;;;;9.93;8.13;;;12.30;99.90;;;;;;5029891;28;20025;-57
2022/05/04 04:57:03;;;;;;;14.63;8.43;;;12.30;99.90;;;;;;5030025;28;20212;-57
2022/05/04 04:59:28;;;;;;;12.65;9.18;;;12.30;99.90;;;;;;5029785;28;20029;-58
2022/05/04 05:01:54;;;;;;;11.70;8.77;;;12.20;99.90;;;;;;5029917;28;20359;-55
2022/05/04 05:04:20;;;;;;;11.48;8.75;;;12.20;99.90;;;;;;5029968;28;20041;-58
2022/05/04 05:06:45;;;;;;;14.57;9.20;;;12.20;99.90;;;;;;5030248;28;20449;-58
2022/05/04 05:09:11;;;;;;;11.27;9.68;;;12.20;99.90;;;;;;5029884;28;20031;-58
2022/05/04 05:11:36;;;;;;;11.23;8.65;;;12.20;99.90;;;;;;5029700;28;20029;-58
2022/05/04 05:16:46;;;;;;;12.65;8.95;;;12.20;99.90;;;;;;5029792;28;20133;-59
2022/05/04 05:19:12;;;;;;;10.20;9.00;;;12.30;99.90;;;;;;5029763;28;20524;-58
2022/05/04 05:21:37;;;;;;;10.07;9.07;;;12.30;99.90;;;;;;5029626;28;20018;-56
2022/05/04 05:24:03;;;;;;;15.73;9.57;;;12.40;99.90;;;;;;5029813;28;20436;-57
2022/05/04 05:26:29;;;;;;;11.75;8.88;;;12.40;99.90;;;;;;5028344;28;20033;-53
2022/05/04 05:28:54;;;;;;;11.52;9.38;;;12.40;99.90;;;;;;5029633;28;20061;-58
2022/05/04 05:31:20;;;;;;;13.68;9.10;;;12.50;99.90;;;;;;5029513;28;20036;-56
2022/05/04 05:33:46;;;;;;;11.50;9.43;;;12.60;99.90;;;;;;5029700;28;20029;-58
2022/05/04 05:36:12;;;;;;;18.08;8.80;;;12.60;99.90;;;;;;5029661;28;20535;-57
2022/05/04 05:38:38;;;;;;;12.45;8.25;;;12.60;99.90;;;;;;5029508;28;20029;-58
2022/05/04 05:41:03;;;;;;;10.02;8.40;;;12.70;99.90;;;;;;5032909;28;20499;-58
2022/05/04 05:43:29;;;;;;;11.35;8.73;;;12.70;99.90;;;;;;5033590;28;20112;-56
2022/05/04 05:45:55;;;;;;;11.48;9.48;;;12.70;99.90;;;;;;5033789;28;20034;-57
2022/05/04 05:48:20;;;;;;;9.85;8.32;;;12.70;99.90;;;;;;5033759;28;20083;-57
2022/05/04 05:50:47;;;;;;;11.98;9.10;;;12.70;99.90;;;;;;5037281;28;20040;-55
2022/05/04 05:53:14;;;;;;;10.25;8.70;;;12.70;99.90;;;;;;5023193;28;20397;-58
2022/05/04 05:55:40;;;;;;;12.10;7.70;;;12.70;99.90;;;;;;5021751;28;21398;-57
2022/05/04 05:58:06;;;;;;;9.38;8.20;;;12.70;99.90;;;;;;5021806;28;20088;-58
2022/05/04 06:00:32;;;;;;;9.57;8.57;;;12.70;99.90;;;;;;5042341;28;20052;-56
2022/05/04 06:02:58;;;;;;;12.25;7.97;;;12.70;99.90;;;;;;5042695;28;20063;-55
2022/05/04 06:05:24;;;;;;;9.75;7.85;;;12.80;99.90;;;;;;5036137;28;20532;-51
2022/05/04 06:07:49;;;;;;;8.63;7.75;;;13.00;99.90;;;;;;5022222;28;20029;-55
2022/05/04 06:10:15;;;;;;;9.32;8.00;;;13.10;99.90;;;;;;5022473;28;20036;-55
2022/05/04 06:12:41;;;;;;;10.77;7.68;;;13.30;99.90;;;;;;5022647;28;20431;-54
2022/05/04 06:15:08;;;;;;;9.32;8.05;;;13.40;99.90;;;;;;5021291;28;20045;-57
2022/05/04 06:17:34;;;;;;;9.38;7.18;;;13.50;99.90;;;;;;5022085;28;20104;-56
2022/05/04 06:20:00;;;;;;;13.00;6.72;;;13.90;99.90;;;;;;5021339;28;20030;-57
2022/05/04 06:22:25;;;;;;;9.18;7.40;;;14.20;99.90;;;;;;5021272;28;20033;-57
2022/05/04 06:24:51;;;;;;;8.73;7.00;;;14.40;99.90;;;;;;5021828;28;20063;-57
2022/05/04 06:27:17;;;;;;;8.13;7.07;;;14.60;99.90;;;;;;5022409;28;20120;-55
2022/05/04 06:35:11;;;;;;;;;;;14.80;99.90;;;;;;5024133;28;20072;-56
2022/05/04 06:37:36;;;;;;;8.32;6.45;;;14.90;99.90;;;;;;5042614;28;20382;-57
2022/05/04 06:40:03;;;;;;;14.23;7.47;;;15.00;99.90;;;;;;5040119;28;20041;-54
2022/05/04 06:42:29;;;;;;;10.25;7.15;;;15.10;99.90;;;;;;5039886;28;20040;-56
2022/05/04 06:44:55;;;;;;;11.55;6.50;;;15.20;99.90;;;;;;5042458;28;20029;-58
2022/05/04 06:47:20;;;;;;;6.75;6.05;;;15.40;99.90;;;;;;5042048;28;20112;-55
2022/05/04 06:49:46;;;;;;;11.15;6.82;;;15.50;99.90;;;;;;5022042;28;20025;-56
2022/05/04 06:52:12;;;;;;;8.75;6.70;;;15.40;99.90;;;;;;5022436;28;20025;-57
2022/05/04 06:54:37;;;;;;;8.90;6.55;;;15.40;99.90;;;;;;5021745;28;20053;-58
2022/05/04 06:57:03;;;;;;;8.32;6.85;;;15.50;99.90;;;;;;5022405;28;20033;-57
2022/05/04 06:59:29;;;;;;;8.82;6.38;;;15.50;99.90;;;;;;5021130;28;20037;-57
2022/05/04 07:01:55;;;;;;;13.43;7.53;;;15.60;99.90;;;;;;5022205;28;20491;-58
2022/05/04 07:04:22;;;;;;;6.85;6.25;;;15.70;99.90;;;;;;5021966;28;20025;-56
2022/05/04 07:06:47;;;;;;;7.60;6.90;;;15.70;99.90;;;;;;5031738;28;20040;-57
2022/05/04 07:09:13;;;;;;;9.25;6.13;;;15.50;99.90;;;;;;5021452;28;20045;-58
2022/05/04 07:11:39;;;;;;;7.05;6.38;;;15.50;99.90;;;;;;5021727;28;20040;-58
2022/05/04 07:14:04;;;;;;;9.00;6.63;;;15.40;99.90;;;;;;5023281;28;20159;-58
2022/05/04 07:16:30;;;;;;;13.30;6.55;;;15.60;99.90;;;;;;5041009;28;20040;-59
2022/05/04 07:18:55;;;;;;;14.43;6.78;;;15.50;99.90;;;;;;5028167;28;20057;-54
2022/05/04 07:21:21;;;;;;;6.72;6.03;;;15.50;99.90;;;;;;5021619;28;20492;-59
2022/05/04 07:23:47;;;;;;;10.02;5.70;;;15.80;99.90;;;;;;5021796;28;20030;-54
2022/05/04 07:26:12;;;;;;;11.15;5.70;;;16.00;99.90;;;;;;5021932;28;20115;-59
2022/05/04 07:28:38;;;;;;;12.77;6.72;;;15.90;99.90;;;;;;5021469;28;20045;-59
2022/05/04 07:31:04;;;;;;;10.45;6.05;;;16.10;99.90;;;;;;5021356;28;20096;-58
2022/05/04 07:33:31;;;;;;;6.97;5.72;;;16.10;99.90;;;;;;5032066;28;20087;-57
2022/05/04 07:35:56;;;;;;;6.30;5.40;;;16.20;99.90;;;;;;5040518;28;20033;-57
2022/05/04 07:38:22;;;;;;;13.40;5.18;;;16.30;99.90;;;;;;5040817;28;20029;-59
2022/05/04 07:43:32;;;;;;;5.97;5.35;;;16.60;99.90;;;;;;5041555;28;20055;-58
2022/05/04 07:45:58;;;;;;;6.55;5.25;;;16.80;99.90;;;;;;5041293;28;20037;-57
2022/05/04 07:48:23;;;;;;;9.70;5.32;;;17.10;99.90;;;;;;5040904;28;20033;-59
2022/05/04 07:50:49;;;;;;;9.40;6.20;;;17.20;99.90;;;;;;5040813;28;20170;-59
2022/05/04 07:53:15;;;;;;;8.48;5.13;;;17.30;99.90;;;;;;5041437;28;20112;-58
2022/05/04 07:55:40;;;;;;;11.70;6.13;;;17.40;99.90;;;;;;5040204;28;20043;-58
2022/05/04 07:58:06;;;;;;;6.93;5.88;;;17.50;99.90;;;;;;5041433;28;20025;-55
2022/05/04 08:06:00;;;;;;;8.05;5.80;;;17.90;99.90;;;;;;5020745;28;20087;-57
2022/05/04 08:08:26;;;;;;;9.23;5.35;;;18.10;99.90;;;;;;5017802;28;20041;-59
2022/05/04 08:10:52;;;;;;;8.02;5.95;;;18.30;99.90;;;;;;5019390;28;20366;-59
2022/05/04 08:13:20;;;;;;;10.55;6.43;;;18.00;99.90;;;;;;5019323;28;20083;-58
2022/05/04 08:15:46;;;;;;;10.68;5.40;;;17.90;99.90;;;;;;5019441;28;20076;-58
2022/05/04 08:18:12;;;;;;;10.07;5.25;;;18.30;99.90;;;;;;5020588;28;20053;-52
2022/05/04 08:20:37;;;;;;;10.65;5.07;;;18.40;99.60;;;;;;5019600;28;20033;-56
2022/05/04 08:23:04;;;;;;;5.90;5.22;;;18.30;99.20;;;;;;5019900;28;20112;-51
2022/05/04 08:25:30;;;;;;;60.25;41.67;;;18.50;98.40;;;;;;5024900;28;20095;-51
2022/05/04 08:27:56;;;;;;;8.35;5.43;;;18.50;96.60;;;;;;5040529;28;20036;-58
2022/05/04 08:30:23;;;;;;;7.30;5.78;;;18.30;95.80;;;;;;5040781;28;20033;-55
2022/05/04 08:32:49;;;;;;;8.13;5.85;;;18.10;95.90;;;;;;5040920;28;22330;-56
2022/05/04 08:35:15;;;;;;;9.40;5.75;;;18.10;96.90;;;;;;5051457;28;20029;-55
2022/05/04 08:37:42;;;;;;;12.43;7.15;;;18.30;97.70;;;;;;5051127;28;20021;-56
2022/05/04 08:40:11;;;;;;;11.10;6.53;;;18.10;97.50;;;;;;5051388;28;20470;-57
2022/05/04 08:42:42;;;;;;;7.63;6.10;;;18.00;98.00;;;;;;5051260;28;20029;-54
2022/05/04 08:45:11;;;;;;;10.52;7.57;;;18.00;97.30;;;;;;5051182;28;20017;-53
2022/05/04 08:47:39;;;;;;;9.90;5.63;;;17.90;97.20;;;;;;5051050;28;20052;-58
2022/05/04 08:50:15;;;;;;;9.40;7.95;;;18.00;98.20;;;;;;5051347;28;20033;-55
2022/05/04 08:52:51;;;;;;;12.20;6.82;;;18.20;98.90;;;;;;5051100;28;20558;-58
2022/05/04 08:55:18;;;;;;;13.43;8.07;;;18.00;97.20;;;;;;5049641;28;20116;-50
2022/05/04 08:57:43;;;;;;;10.15;6.03;;;18.20;97.90;;;;;;5051023;28;20029;-58
2022/05/04 09:00:10;;;;;;;10.23;8.07;;;18.30;96.70;;;;;;5051087;28;20723;-56
2022/05/04 09:02:37;;;;;;;7.43;5.72;;;18.40;97.50;;;;;;5050811;28;20443;-56
2022/05/04 09:05:42;;;;;;;6.53;5.75;;;18.70;96.90;;;;;;5050964;28;20028;-58
2022/05/04 09:08:09;;;;;;;11.68;4.95;;;19.00;97.70;;;;;;5049632;28;20039;-58
2022/05/04 09:10:44;;;;;;;14.43;5.43;;;19.20;95.90;;;;;;5050945;28;20063;-55
2022/05/04 09:13:11;;;;;;;8.35;5.97;;;19.10;94.50;;;;;;5051095;28;20037;-57
2022/05/04 09:15:40;;;;;;;7.63;6.15;;;19.30;94.70;;;;;;5053535;28;20080;-56
2022/05/04 09:18:13;;;;;;;8.07;5.57;;;19.30;95.20;;;;;;5054650;28;20031;-55
2022/05/04 09:23:23;;;;;;;5.90;4.63;;;19.30;93.80;;;;;;5054740;28;20267;-55
2022/05/04 09:26:13;;;;;;;5.88;4.63;;;19.50;94.30;;;;;;5054532;28;20105;-57
2022/05/04 09:28:39;;;;;;;8.77;5.20;;;19.30;93.70;;;;;;5054181;28;20045;-57
2022/05/04 09:31:07;;;;;;;6.78;5.40;;;19.30;93.90;;;;;;5054265;28;20017;-58
2022/05/04 09:33:35;;;;;;;7.65;5.78;;;19.20;94.10;;;;;;5054119;28;20036;-56
2022/05/04 09:36:05;;;;;;;10.30;5.20;;;19.00;94.30;;;;;;5054222;28;20075;-58
2022/05/04 09:46:51;;;;;;;12.85;5.22;;;19.20;93.90;;;;;;5053093;28;20476;-58
2022/05/04 09:49:18;;;;;;;6.40;5.80;;;19.00;93.40;;;;;;5053051;28;20021;-58
2022/05/04 09:51:48;;;;;;;7.05;5.20;;;19.40;96.00;;;;;;5053328;28;20079;-56
2022/05/04 09:54:19;;;;;;;5.78;4.85;;;19.90;95.10;;;;;;5052963;28;20164;-55
2022/05/04 09:56:47;;;;;;;12.85;9.02;;;20.00;94.10;;;;;;5052817;28;20052;-58
2022/05/04 09:59:18;;;;;;;6.22;4.80;;;20.20;94.00;;;;;;5052794;28;20025;-58
2022/05/04 10:01:45;;;;;;;7.00;5.18;;;20.60;92.00;;;;;;5053174;28;20017;-58
2022/05/04 10:04:11;;;;;;;7.35;5.43;;;21.00;91.00;;;;;;5051037;28;20025;-58
2022/05/04 10:06:37;;;;;;;10.43;5.93;;;21.20;90.30;;;;;;5041784;28;20485;-58
2022/05/04 10:09:04;;;;;;;7.45;5.40;;;21.50;91.60;;;;;;5042475;28;20029;-57
2022/05/04 10:11:35;;;;;;;9.63;4.90;;;21.30;89.50;;;;;;5042519;28;20033;-59
2022/05/04 10:14:10;;;;;;;7.03;5.68;;;21.40;88.50;;;;;;5042481;28;22566;-58
2022/05/04 10:16:57;;;;;;;8.77;5.68;;;21.50;88.80;;;;;;5021729;28;20030;-59
2022/05/04 10:19:33;;;;;;;6.65;4.28;;;21.40;87.20;;;;;;5022238;28;20246;-59
2022/05/04 10:22:00;;;;;;;6.05;4.88;;;22.00;90.20;;;;;;5022321;28;20036;-57
2022/05/04 10:24:30;;;;;;;8.55;5.75;;;22.10;81.80;;;;;;5020864;28;20117;-57
2022/05/04 10:27:14;;;;;;;10.43;5.22;;;22.30;89.20;;;;;;5020709;28;20034;-54
2022/05/04 10:32:31;;;;;;;13.43;10.30;;;22.60;82.00;;;;;;5026767;28;20511;-59
2022/05/04 10:35:32;;;;;;;8.35;5.05;;;22.80;85.60;;;;;;5033001;28;20029;-58
2022/05/04 10:37:58;;;;;;;8.05;4.43;;;22.80;80.40;;;;;;5032572;28;20398;-57
2022/05/04 10:40:26;;;;;;;8.98;4.20;;;22.80;77.50;;;;;;5032089;28;20028;-58
2022/05/04 10:42:54;;;;;;;11.48;4.28;;;22.90;81.50;;;;;;5031165;28;20033;-55
2022/05/04 10:45:24;;;;;;;12.32;3.70;;;22.50;76.90;;;;;;5032311;28;20433;-58
2022/05/04 10:47:49;;;;;;;4.80;3.47;;;22.30;79.20;;;;;;5031920;28;20074;-59
2022/05/04 10:50:19;;;;;;;6.35;3.40;;;21.80;78.00;;;;;;5031944;28;20025;-58
2022/05/04 10:52:48;;;;;;;4.45;3.13;;;22.20;81.50;;;;;;5032089;28;20052;-58
2022/05/04 10:55:14;;;;;;;4.93;3.47;;;22.40;79.50;;;;;;5031742;28;20030;-53
2022/05/04 10:57:42;;;;;;;2.60;2.40;;;22.80;73.60;;;;;;5031625;28;20540;-59
2022/05/04 11:00:10;;;;;;;7.30;3.08;;;22.50;75.40;;;;;;5031801;28;20025;-60
2022/05/04 11:02:42;;;;;;;14.95;2.80;;;22.90;79.40;;;;;;5031472;28;20070;-59
2022/05/04 11:05:12;;;;;;;4.82;3.42;;;22.90;77.70;;;;;;5031866;28;20030;-59
2022/05/04 11:07:37;;;;;;;5.65;3.00;;;23.30;75.70;;;;;;5031346;28;20056;-59
2022/05/04 11:10:03;;;;;;;4.78;2.60;;;23.50;71.60;;;;;;5031541;28;20685;-58
2022/05/04 11:12:29;;;;;;;4.50;3.00;;;23.30;76.10;;;;;;5031468;28;20033;-60
2022/05/04 11:14:55;;;;;;;5.25;3.42;;;23.60;75.40;;;;;;5031027;28;20045;-57
2022/05/04 11:17:20;;;;;;;3.95;3.00;;;23.60;72.00;;;;;;5031099;28;20032;-59
2022/05/04 11:19:47;;;;;;;6.53;2.97;;;23.60;72.90;;;;;;5031426;28;20072;-55
2022/05/04 11:22:15;;;;;;;3.10;2.80;;;23.30;71.80;;;;;;5031404;28;20025;-60
2022/05/04 11:24:42;;;;;;;7.15;2.88;;;23.70;69.20;;;;;;5030984;28;20025;-56
2022/05/04 11:27:07;;;;;;;8.10;3.03;;;23.70;67.10;;;;;;5031438;28;20037;-55
2022/05/04 11:29:33;;;;;;;5.97;3.08;;;23.80;66.50;;;;;;5030890;28;20233;-56
2022/05/04 11:32:06;;;;;;;4.80;3.10;;;23.90;68.50;;;;;;5031225;28;20104;-59
2022/05/04 11:34:37;;;;;;;5.30;3.27;;;23.90;72.30;;;;;;5031121;28;20026;-57
2022/05/04 11:37:09;;;;;;;5.03;2.90;;;23.90;65.80;;;;;;5030142;28;20018;-57
2022/05/04 11:39:37;;;;;;;3.63;2.63;;;24.00;66.80;;;;;;5030904;28;20029;-59
2022/05/04 11:42:05;;;;;;;7.38;2.78;;;24.50;68.80;;;;;;5030883;28;20025;-58
2022/05/04 11:44:31;;;;;;;5.03;2.83;;;25.30;66.70;;;;;;5030871;28;20021;-54
2022/05/04 11:46:59;;;;;;;3.03;2.60;;;25.20;63.10;;;;;;5030931;28;20100;-58
2022/05/04 11:49:27;;;;;;;4.40;3.10;;;25.90;62.10;;;;;;5030984;28;20021;-59
2022/05/04 11:51:54;;;;;;;8.77;2.50;;;26.50;55.00;;;;;;5031235;28;20025;-58
2022/05/04 11:54:20;;;;;;;3.67;2.55;;;26.80;52.50;;;;;;5030505;28;20125;-60
2022/05/04 11:56:46;;;;;;;6.40;2.33;;;25.80;52.00;;;;;;5030632;28;20025;-60
2022/05/04 11:59:12;;;;;;;6.30;2.13;;;27.60;51.20;;;;;;5030944;28;20091;-60
2022/05/04 12:01:40;;;;;;;4.13;2.13;;;28.20;52.90;;;;;;5030422;28;20672;-56
2022/05/04 12:04:07;;;;;;;3.35;1.73;;;28.40;49.50;;;;;;5030666;28;20432;-57
2022/05/04 12:06:34;;;;;;;4.82;1.98;;;29.00;50.90;;;;;;5029107;28;20384;-56
2022/05/04 12:09:01;;;;;;;2.85;1.85;;;28.50;49.10;;;;;;5030425;28;20029;-58
2022/05/04 12:11:28;;;;;;;7.10;2.15;;;28.50;48.30;;;;;;5030531;28;20108;-58
2022/05/04 12:13:56;;;;;;;4.60;1.90;;;28.10;47.50;;;;;;5028809;28;20117;-58
2022/05/04 12:16:23;;;;;;;8.57;2.45;;;28.20;50.50;;;;;;5030778;28;20024;-58
2022/05/04 12:18:49;;;;;;;3.33;2.30;;;27.80;47.30;;;;;;5024861;28;23696;-58
2022/05/04 12:21:17;;;;;;;18.52;2.47;;;27.40;45.80;;;;;;5038557;28;20025;-54
2022/05/04 12:23:48;;;;;;;7.13;2.30;;;28.20;48.40;;;;;;5041995;28;20052;-57
2022/05/04 12:26:16;;;;;;;3.13;1.83;;;27.40;49.50;;;;;;5040853;28;20025;-57
2022/05/04 12:33:08;;;;;;;3.75;2.53;;;26.10;47.80;;;;;;5020971;28;20365;-58
2022/05/04 12:34:14;;;;;;;3.63;2.50;;;25.70;51.10;;;;;;5021335;28;20099;-56
2022/05/04 12:36:41;;;;;;;4.78;3.70;;;27.00;51.10;;;;;;5026182;28;20041;-58
2022/05/04 12:39:07;;;;;;;10.43;3.65;;;27.10;47.60;;;;;;5021628;28;20030;-58
2022/05/04 12:41:33;;;;;;;6.55;2.42;;;26.30;47.20;;;;;;5021734;28;20041;-58
2022/05/04 12:44:03;;;;;;;4.65;2.75;;;25.30;49.40;;;;;;5020291;28;20369;-57
2022/05/04 12:46:29;;;;;;;6.03;3.05;;;24.70;49.70;;;;;;5019846;28;20064;-57
2022/05/04 12:48:56;;;;;;;3.13;2.53;;;24.70;50.60;;;;;;5019793;28;20057;-57
2022/05/04 12:51:24;;;;;;;7.60;2.92;;;24.40;51.10;;;;;;5013201;28;20026;-57
2022/05/04 12:53:51;;;;;;;10.55;2.63;;;24.40;49.90;;;;;;5017795;28;20044;-58
2022/05/04 12:59:02;;;;;;;4.65;2.55;;;24.70;51.80;;;;;;5015451;28;20503;-56
2022/05/04 13:01:32;;;;;;;3.88;2.80;;;24.60;52.90;;;;;;5025743;28;20033;-56
2022/05/04 13:03:59;;;;;;;6.78;2.70;;;23.70;54.10;;;;;;5022725;28;20401;-57
2022/05/04 13:06:25;;;;;;;6.90;3.55;;;22.90;56.00;;;;;;5014980;28;20037;-56
2022/05/04 13:08:52;;;;;;;6.38;4.00;;;22.30;57.20;;;;;;5012593;28;20041;-57
2022/05/04 13:11:20;;;;;;;14.32;4.07;;;21.90;58.40;;;;;;5015968;28;20056;-57
2022/05/04 13:13:46;;;;;;;9.25;3.38;;;21.70;58.00;;;;;;5027617;28;20110;-57
2022/05/04 13:16:12;;;;;;;4.63;3.58;;;21.70;59.80;;;;;;5032361;28;20105;-55
2022/05/04 13:18:39;;;;;;;4.97;3.40;;;21.70;61.50;;;;;;5031628;28;20095;-55
2022/05/04 13:21:05;;;;;;;8.25;3.40;;;21.70;61.60;;;;;;5032326;28;20022;-56
2022/05/04 13:23:31;;;;;;;9.68;3.45;;;22.50;61.00;;;;;;5033605;28;20025;-56
2022/05/04 13:25:57;;;;;;;8.25;3.20;;;23.50;60.50;;;;;;5032230;28;20044;-57
2022/05/04 13:28:23;;;;;;;7.47;2.60;;;25.40;58.10;;;;;;5033190;28;20144;-57